createdAt,value
2023-05-09T00:01:20.796Z,15.89
2023-05-09T00:03:47.748Z,15.88
2023-05-09T00:06:15.536Z,15.76
2023-05-09T00:08:42.245Z,15.78
2023-05-09T00:11:09.131Z,15.68
2023-05-09T00:13:35.885Z,15.80
2023-05-09T00:16:03.649Z,15.78
2023-05-09T00:18:31.207Z,15.80
2023-05-09T00:20:58.076Z,15.82
2023-05-09T00:23:24.736Z,15.70
2023-05-09T00:25:51.436Z,15.70
2023-05-09T00:28:18.139Z,15.64
2023-05-09T00:30:44.920Z,15.64
2023-05-09T00:33:11.650Z,15.65
2023-05-09T00:35:38.535Z,15.52
2023-05-09T00:38:05.162Z,15.67
2023-05-09T00:40:31.901Z,15.64
2023-05-09T00:43:01.593Z,15.64
2023-05-09T00:45:28.205Z,15.62
2023-05-09T00:47:55.699Z,15.52
2023-05-09T00:50:22.378Z,15.54
2023-05-09T00:52:49.221Z,15.57
2023-05-09T00:55:16.552Z,15.38
2023-05-09T00:57:43.544Z,15.36
2023-05-09T01:00:14.165Z,15.52
2023-05-09T01:02:43.304Z,15.51
2023-05-09T01:05:11.398Z,15.45
2023-05-09T01:07:57.143Z,15.47
2023-05-09T01:10:35.224Z,15.38
2023-05-09T01:13:09.211Z,15.41
2023-05-09T01:16:13.056Z,15.44
2023-05-09T01:18:51.624Z,15.50
2023-05-09T01:21:24.204Z,15.44
2023-05-09T01:24:20.739Z,15.41
2023-05-09T01:27:20.791Z,15.35
2023-05-09T01:29:49.072Z,15.31
2023-05-09T01:32:24.321Z,15.17
2023-05-09T01:34:54.518Z,15.29
2023-05-09T01:37:27.052Z,15.32
2023-05-09T01:39:56.076Z,15.20
2023-05-09T01:42:23.818Z,15.15
2023-05-09T01:44:51.203Z,15.03
2023-05-09T01:47:18.496Z,15.10
2023-05-09T01:49:47.684Z,14.99
2023-05-09T01:52:17.664Z,14.95
2023-05-09T01:54:45.926Z,14.80
2023-05-09T01:57:13.009Z,14.92
2023-05-09T01:59:43.166Z,14.92
2023-05-09T02:02:10.450Z,14.89
2023-05-09T02:04:38.073Z,14.76
2023-05-09T02:07:06.550Z,14.73
2023-05-09T02:09:33.494Z,14.80
2023-05-09T02:12:00.221Z,14.73
2023-05-09T02:14:27.002Z,14.89
2023-05-09T02:16:54.267Z,14.87
2023-05-09T02:19:20.938Z,14.87
2023-05-09T02:21:47.526Z,14.79
2023-05-09T02:24:14.357Z,14.76
2023-05-09T02:26:41.563Z,14.90
2023-05-09T02:29:10.899Z,14.65
2023-05-09T02:31:41.172Z,14.85
2023-05-09T02:34:09.855Z,14.88
2023-05-09T02:36:36.665Z,14.91
2023-05-09T02:39:03.655Z,14.82
2023-05-09T02:41:30.863Z,14.88
2023-05-09T02:43:57.455Z,14.91
2023-05-09T02:46:24.095Z,14.87
2023-05-09T02:48:51.541Z,14.89
2023-05-09T02:51:18.025Z,14.80
2023-05-09T02:53:44.638Z,14.80
2023-05-09T02:56:11.291Z,14.70
2023-05-09T02:58:38.454Z,14.79
2023-05-09T03:01:05.193Z,14.80
2023-05-09T03:03:34.893Z,14.82
2023-05-09T03:06:01.658Z,14.83
2023-05-09T03:08:28.231Z,14.67
2023-05-09T03:10:54.927Z,14.67
2023-05-09T03:13:21.588Z,14.63
2023-05-09T03:15:48.380Z,14.54
2023-05-09T03:18:15.014Z,14.51
2023-05-09T03:20:41.675Z,14.37
2023-05-09T03:23:08.350Z,14.32
2023-05-09T03:25:34.979Z,14.33
2023-05-09T03:28:01.609Z,14.45
2023-05-09T03:30:28.291Z,14.42
2023-05-09T03:32:54.929Z,14.50
2023-05-09T03:35:21.650Z,14.54
2023-05-09T03:37:48.277Z,14.50
2023-05-09T03:40:14.985Z,14.48
2023-05-09T03:42:41.649Z,14.52
2023-05-09T03:45:08.880Z,14.56
2023-05-09T03:47:35.503Z,14.53
2023-05-09T03:50:02.407Z,14.51
2023-05-09T03:52:29.068Z,14.50
2023-05-09T03:54:55.693Z,14.37
2023-05-09T03:57:22.317Z,14.50
2023-05-09T03:59:48.923Z,14.52
2023-05-09T04:02:15.636Z,14.57
2023-05-09T04:04:42.443Z,14.56
2023-05-09T04:07:09.239Z,14.60
2023-05-09T04:09:35.945Z,14.73
2023-05-09T04:12:02.577Z,14.65
2023-05-09T04:14:29.233Z,14.64
2023-05-09T04:16:55.841Z,14.71
2023-05-09T04:19:22.498Z,14.76
2023-05-09T04:21:49.117Z,14.80
2023-05-09T04:24:15.769Z,14.83
2023-05-09T04:26:42.611Z,14.88
2023-05-09T04:29:09.336Z,14.93
2023-05-09T04:31:36.335Z,15.01
2023-05-09T04:34:03.516Z,14.94
2023-05-09T04:36:30.147Z,14.97
2023-05-09T04:38:57.071Z,15.05
2023-05-09T04:41:24.085Z,15.06
2023-05-09T04:43:51.873Z,15.04
2023-05-09T04:46:18.605Z,15.13
2023-05-09T04:48:45.283Z,15.00
2023-05-09T04:51:11.867Z,15.18
2023-05-09T04:53:38.540Z,15.27
2023-05-09T04:56:05.347Z,15.31
2023-05-09T04:58:33.345Z,15.18
2023-05-09T05:01:00.072Z,15.27
2023-05-09T05:03:26.620Z,15.36
2023-05-09T05:05:53.307Z,15.37
2023-05-09T05:08:20.119Z,15.45
2023-05-09T05:10:47.591Z,15.49
2023-05-09T05:13:14.082Z,15.58
2023-05-09T05:15:41.233Z,15.49
2023-05-09T05:18:08.034Z,15.52
2023-05-09T05:20:35.292Z,15.57
2023-05-09T05:23:01.943Z,15.58
2023-05-09T05:25:28.512Z,15.68
2023-05-09T05:27:55.053Z,15.75
2023-05-09T05:30:21.722Z,15.77
2023-05-09T05:32:48.386Z,15.89
2023-05-09T05:35:15.183Z,16.03
2023-05-09T05:37:42.284Z,16.15
2023-05-09T05:40:09.883Z,16.27
2023-05-09T05:42:36.714Z,16.45
2023-05-09T05:45:06.462Z,16.65
2023-05-09T05:47:37.106Z,16.99
2023-05-09T05:50:11.683Z,17.62
2023-05-09T05:52:39.728Z,18.01
2023-05-09T05:55:06.606Z,18.54
2023-05-09T05:57:34.588Z,18.75
2023-05-09T06:00:01.734Z,19.00
2023-05-09T06:02:28.421Z,19.21
2023-05-09T06:04:56.164Z,19.70
2023-05-09T06:07:22.934Z,19.99
2023-05-09T06:09:49.607Z,20.31
2023-05-09T06:12:17.096Z,20.24
2023-05-09T06:14:43.913Z,20.40
2023-05-09T06:17:10.676Z,20.79
2023-05-09T06:19:37.779Z,21.42
2023-05-09T06:22:04.455Z,21.58
2023-05-09T06:24:35.987Z,21.04
2023-05-09T06:27:04.059Z,21.45
2023-05-09T06:29:30.714Z,21.40
2023-05-09T06:31:57.515Z,21.31
2023-05-09T06:34:24.299Z,20.82
2023-05-09T06:36:50.917Z,20.62
2023-05-09T06:39:17.519Z,20.90
2023-05-09T06:41:44.136Z,20.95
2023-05-09T06:44:10.789Z,21.00
2023-05-09T06:46:37.505Z,20.57
2023-05-09T06:49:05.683Z,20.25
2023-05-09T06:51:32.474Z,20.51
2023-05-09T06:53:59.145Z,20.59
2023-05-09T06:56:26.525Z,20.63
2023-05-09T06:58:53.564Z,20.84
2023-05-09T07:01:20.242Z,20.86
2023-05-09T07:03:47.658Z,21.08
2023-05-09T07:06:14.334Z,21.38
2023-05-09T07:08:40.958Z,21.28
2023-05-09T07:11:07.702Z,20.76
2023-05-09T07:13:34.405Z,20.40
2023-05-09T07:16:00.998Z,20.69
2023-05-09T07:18:27.606Z,21.18
2023-05-09T07:20:54.290Z,20.93
2023-05-09T07:23:21.160Z,21.18
2023-05-09T07:25:47.795Z,20.96
2023-05-09T07:28:14.429Z,20.71
2023-05-09T07:30:41.780Z,20.93
2023-05-09T07:33:08.501Z,21.31
2023-05-09T07:35:35.076Z,21.83
2023-05-09T07:38:01.740Z,22.01
2023-05-09T07:40:28.331Z,22.07
2023-05-09T07:42:56.796Z,21.90
2023-05-09T07:45:24.019Z,21.97
2023-05-09T07:47:50.844Z,21.88
2023-05-09T07:50:17.590Z,21.80
2023-05-09T07:52:44.448Z,21.93
2023-05-09T07:55:12.612Z,21.97
2023-05-09T07:57:40.092Z,21.81
2023-05-09T08:00:08.870Z,21.73
2023-05-09T08:02:35.690Z,21.58
2023-05-09T08:05:02.412Z,21.43
2023-05-09T08:07:28.987Z,21.31
2023-05-09T08:09:55.580Z,21.36
2023-05-09T08:12:22.182Z,21.36
2023-05-09T08:14:48.995Z,21.46
2023-05-09T08:17:16.335Z,21.19
2023-05-09T08:19:42.895Z,21.03
2023-05-09T08:22:09.539Z,20.47
2023-05-09T08:24:36.143Z,20.36
2023-05-09T08:27:02.790Z,20.46
2023-05-09T08:29:29.891Z,20.36
2023-05-09T08:31:56.607Z,20.38
2023-05-09T08:34:23.265Z,20.38
2023-05-09T08:36:49.926Z,20.52
2023-05-09T08:39:16.598Z,20.22
2023-05-09T08:41:43.729Z,20.28
2023-05-09T08:44:11.019Z,20.60
2023-05-09T08:46:39.161Z,20.74
2023-05-09T08:49:09.202Z,21.03
2023-05-09T08:51:36.105Z,21.12
2023-05-09T08:54:03.571Z,21.25
2023-05-09T08:56:31.612Z,20.87
2023-05-09T08:58:59.102Z,20.82
2023-05-09T09:01:27.032Z,21.00
2023-05-09T09:03:54.145Z,21.02
2023-05-09T09:06:22.316Z,21.08
2023-05-09T09:08:50.096Z,21.26
2023-05-09T09:11:17.728Z,21.46
2023-05-09T09:13:46.520Z,21.35
2023-05-09T09:16:21.172Z,21.43
2023-05-09T09:18:48.571Z,21.59
2023-05-09T09:21:16.713Z,21.51
2023-05-09T09:23:44.375Z,21.60
2023-05-09T09:26:11.057Z,21.27
2023-05-09T09:28:37.731Z,21.09
2023-05-09T09:31:20.180Z,20.78
2023-05-09T09:33:47.284Z,20.85
2023-05-09T09:36:13.909Z,20.77
2023-05-09T09:38:43.816Z,20.93
2023-05-09T09:41:12.537Z,20.73
2023-05-09T09:43:39.194Z,20.69
2023-05-09T09:46:06.356Z,20.79
2023-05-09T09:48:35.597Z,20.54
2023-05-09T09:51:11.797Z,20.11
2023-05-09T09:53:43.574Z,20.18
2023-05-09T09:56:11.276Z,20.09
2023-05-09T09:58:37.980Z,20.23
2023-05-09T10:01:09.609Z,20.15
2023-05-09T10:03:41.397Z,20.16
2023-05-09T10:06:16.069Z,20.05
2023-05-09T10:08:49.120Z,19.98
2023-05-09T10:11:16.382Z,19.74
2023-05-09T10:13:44.635Z,19.93
2023-05-09T10:16:11.832Z,19.72
2023-05-09T10:18:42.666Z,19.60
2023-05-09T10:21:15.230Z,19.51
2023-05-09T10:23:46.370Z,19.65
2023-05-09T10:26:29.115Z,19.68
2023-05-09T10:28:58.151Z,19.97
2023-05-09T10:31:29.934Z,20.15
2023-05-09T10:33:57.283Z,20.02
2023-05-09T10:36:24.250Z,19.89
2023-05-09T10:38:55.402Z,20.05
2023-05-09T10:41:23.714Z,19.91
2023-05-09T10:43:50.609Z,19.86
2023-05-09T10:46:17.895Z,19.99
2023-05-09T10:48:45.115Z,19.95
2023-05-09T10:51:13.234Z,20.03
2023-05-09T10:53:46.529Z,20.09
2023-05-09T10:56:35.940Z,20.03
2023-05-09T10:59:03.111Z,20.02
2023-05-09T11:01:37.260Z,19.97
2023-05-09T11:04:13.050Z,19.93
2023-05-09T11:06:43.983Z,19.80
2023-05-09T11:09:28.278Z,19.86
2023-05-09T11:11:57.159Z,19.81
2023-05-09T11:14:38.171Z,19.85
2023-05-09T11:17:07.007Z,19.75
2023-05-09T11:19:35.111Z,19.57
2023-05-09T11:22:05.047Z,19.49
2023-05-09T11:24:32.692Z,19.27
2023-05-09T11:27:00.120Z,19.17
2023-05-09T11:29:27.139Z,19.14
2023-05-09T11:32:06.621Z,19.15
2023-05-09T11:34:34.437Z,18.95
2023-05-09T11:37:10.329Z,18.99
2023-05-09T11:40:04.826Z,19.05
2023-05-09T11:42:32.650Z,19.05
2023-05-09T11:44:59.588Z,18.97
2023-05-09T11:47:28.988Z,19.10
2023-05-09T11:49:56.052Z,19.00
2023-05-09T11:52:22.699Z,18.75
2023-05-09T11:54:50.325Z,18.67
2023-05-09T11:57:18.009Z,18.72
2023-05-09T11:59:45.680Z,18.57
2023-05-09T12:02:13.657Z,18.31
2023-05-09T12:04:40.473Z,18.35
2023-05-09T12:07:07.366Z,18.35
2023-05-09T12:09:38.677Z,18.22
2023-05-09T12:12:12.741Z,17.95
2023-05-09T12:14:40.278Z,18.10
2023-05-09T12:17:08.161Z,18.21
2023-05-09T12:19:35.041Z,18.25
2023-05-09T12:22:03.909Z,18.33
2023-05-09T12:24:31.391Z,18.38
2023-05-09T12:26:59.730Z,18.44
2023-05-09T12:29:27.217Z,18.19
2023-05-09T12:31:54.669Z,17.98
2023-05-09T12:34:21.682Z,17.95
2023-05-09T12:36:50.909Z,17.84
2023-05-09T12:39:18.636Z,17.86
2023-05-09T12:41:57.364Z,17.78
2023-05-09T12:44:29.840Z,17.65
2023-05-09T12:46:58.858Z,17.45
2023-05-09T12:49:26.228Z,17.46
2023-05-09T12:51:53.749Z,17.39
2023-05-09T12:54:25.014Z,17.37
2023-05-09T12:56:53.476Z,17.25
2023-05-09T12:59:25.038Z,17.21
2023-05-09T13:01:54.032Z,17.11
2023-05-09T13:04:21.940Z,17.10
2023-05-09T13:06:57.621Z,17.11
2023-05-09T13:09:25.868Z,17.10
2023-05-09T13:11:53.172Z,17.08
2023-05-09T13:14:23.247Z,16.94
2023-05-09T13:16:49.948Z,17.00
2023-05-09T13:19:16.729Z,16.81
2023-05-09T13:21:43.386Z,16.97
2023-05-09T13:24:10.016Z,16.91
2023-05-09T13:26:36.748Z,16.89
2023-05-09T13:29:03.388Z,16.81
2023-05-09T13:31:30.892Z,16.69
2023-05-09T13:33:57.385Z,16.74
2023-05-09T13:36:24.047Z,16.88
2023-05-09T13:38:51.035Z,16.90
2023-05-09T13:41:21.818Z,16.83
2023-05-09T13:43:48.590Z,16.86
2023-05-09T13:46:15.323Z,16.83
2023-05-09T13:48:42.059Z,16.87
2023-05-09T13:51:08.814Z,16.97
2023-05-09T13:53:38.104Z,17.11
2023-05-09T13:56:12.459Z,17.11
2023-05-09T13:58:39.075Z,16.93
2023-05-09T14:01:05.964Z,16.85
2023-05-09T14:03:32.777Z,16.99
2023-05-09T14:05:59.873Z,17.04
2023-05-09T14:08:26.507Z,17.05
2023-05-09T14:10:53.646Z,17.10
2023-05-09T14:13:20.334Z,17.14
2023-05-09T14:15:47.035Z,17.07
2023-05-09T14:18:17.674Z,17.02
2023-05-09T14:20:45.149Z,17.06
2023-05-09T14:23:11.742Z,17.17
2023-05-09T14:25:38.461Z,17.20
2023-05-09T14:28:07.052Z,17.18
2023-05-09T14:30:34.351Z,17.12
2023-05-09T14:33:01.030Z,17.18
2023-05-09T14:35:28.001Z,17.22
2023-05-09T14:37:54.720Z,17.16
2023-05-09T14:40:21.685Z,17.08
2023-05-09T14:42:48.591Z,17.06
2023-05-09T14:45:15.483Z,17.03
2023-05-09T14:47:42.195Z,17.21
2023-05-09T14:50:11.461Z,17.18
2023-05-09T14:52:38.085Z,17.18
2023-05-09T14:55:06.278Z,17.18
2023-05-09T14:57:33.626Z,17.17
2023-05-09T15:00:12.701Z,17.21
2023-05-09T15:02:47.368Z,17.25
2023-05-09T15:05:13.967Z,17.26
2023-05-09T15:07:40.716Z,17.21
2023-05-09T15:10:07.940Z,17.27
2023-05-09T15:12:34.563Z,17.20
2023-05-09T15:15:18.961Z,17.15
2023-05-09T15:17:47.047Z,17.04
2023-05-09T15:20:18.262Z,17.09
2023-05-09T15:22:48.608Z,17.07
2023-05-09T15:25:15.736Z,16.97
2023-05-09T15:27:42.672Z,16.92
2023-05-09T15:30:10.263Z,16.88
2023-05-09T15:32:42.908Z,16.92
2023-05-09T15:35:09.970Z,16.92
2023-05-09T15:37:36.875Z,16.84
2023-05-09T15:40:04.252Z,16.74
2023-05-09T15:42:31.254Z,16.75
2023-05-09T15:44:57.926Z,16.72
2023-05-09T15:47:24.682Z,16.72
2023-05-09T15:49:51.323Z,16.69
2023-05-09T15:52:18.188Z,16.67
2023-05-09T15:54:45.318Z,16.66
2023-05-09T15:57:13.408Z,16.69
2023-05-09T15:59:40.213Z,16.74
2023-05-09T16:02:07.119Z,16.74
2023-05-09T16:04:34.328Z,16.73
2023-05-09T16:07:02.568Z,16.70
2023-05-09T16:09:29.419Z,16.65
2023-05-09T16:11:56.414Z,16.69
2023-05-09T16:14:23.407Z,16.64
2023-05-09T16:16:51.718Z,16.64
2023-05-09T16:19:18.316Z,16.61
2023-05-09T16:21:47.909Z,16.59
2023-05-09T16:24:14.630Z,16.56
2023-05-09T16:26:41.279Z,16.60
2023-05-09T16:29:08.109Z,16.59
2023-05-09T16:31:35.901Z,16.55
2023-05-09T16:34:03.015Z,16.52
2023-05-09T16:36:30.415Z,16.48
2023-05-09T16:38:56.974Z,16.47
2023-05-09T16:41:23.801Z,16.29
2023-05-09T16:43:53.314Z,16.36
2023-05-09T16:46:20.008Z,16.28
2023-05-09T16:48:46.635Z,16.17
2023-05-09T16:51:13.327Z,16.12
2023-05-09T16:53:40.019Z,16.08
2023-05-09T16:56:07.954Z,16.10
2023-05-09T16:58:36.661Z,16.06
2023-05-09T17:01:03.803Z,15.98
2023-05-09T17:03:30.883Z,16.00
2023-05-09T17:05:57.526Z,15.96
2023-05-09T17:08:24.251Z,15.87
2023-05-09T17:10:50.949Z,15.79
2023-05-09T17:13:17.624Z,15.77
2023-05-09T17:15:44.478Z,15.69
2023-05-09T17:18:13.644Z,15.61
2023-05-09T17:20:43.776Z,15.54
2023-05-09T17:23:10.367Z,15.49
2023-05-09T17:25:37.118Z,15.52
2023-05-09T17:28:03.691Z,15.50
2023-05-09T17:30:30.350Z,15.44
2023-05-09T17:32:56.998Z,15.40
2023-05-09T17:35:25.723Z,15.46
2023-05-09T17:37:52.323Z,15.43
2023-05-09T17:40:19.521Z,15.40
2023-05-09T17:42:46.243Z,15.40
2023-05-09T17:45:12.891Z,15.40
2023-05-09T17:47:40.264Z,15.39
2023-05-09T17:50:07.277Z,15.33
2023-05-09T17:52:34.297Z,15.33
2023-05-09T17:55:01.783Z,15.31
2023-05-09T17:57:28.636Z,15.31
2023-05-09T17:59:55.537Z,15.08
2023-05-09T18:02:24.229Z,15.20
2023-05-09T18:04:51.564Z,15.03
2023-05-09T18:07:18.329Z,15.11
2023-05-09T18:09:45.172Z,15.07
2023-05-09T18:12:12.419Z,15.07
2023-05-09T18:14:39.632Z,14.88
2023-05-09T18:17:06.286Z,14.90
2023-05-09T18:19:33.894Z,14.94
2023-05-09T18:22:00.635Z,14.95
2023-05-09T18:24:27.567Z,14.97
2023-05-09T18:26:54.169Z,14.93
2023-05-09T18:29:21.195Z,14.94
2023-05-09T18:31:47.881Z,14.92
2023-05-09T18:34:14.654Z,14.89
2023-05-09T18:36:41.308Z,14.92
2023-05-09T18:39:08.971Z,14.88
2023-05-09T18:41:35.867Z,14.85
2023-05-09T18:44:02.648Z,14.82
2023-05-09T18:46:31.778Z,14.80
2023-05-09T18:48:59.003Z,14.83
2023-05-09T18:51:26.355Z,14.77
2023-05-09T18:53:53.470Z,14.79
2023-05-09T18:56:22.764Z,14.74
2023-05-09T18:58:52.444Z,14.68
2023-05-09T19:01:19.629Z,14.68
2023-05-09T19:03:47.719Z,14.61
2023-05-09T19:06:15.389Z,14.61
2023-05-09T19:08:43.689Z,14.63
2023-05-09T19:11:11.766Z,14.59
2023-05-09T19:13:40.882Z,14.58
2023-05-09T19:16:08.835Z,14.57
2023-05-09T19:18:35.625Z,14.56
2023-05-09T19:21:02.266Z,14.54
2023-05-09T19:23:29.070Z,14.57
2023-05-09T19:25:56.062Z,14.56
2023-05-09T19:28:25.551Z,14.55
2023-05-09T19:30:52.350Z,14.55
2023-05-09T19:33:19.693Z,14.55
2023-05-09T19:35:46.371Z,14.50
2023-05-09T19:38:13.060Z,14.44
2023-05-09T19:40:40.292Z,14.45
2023-05-09T19:43:06.919Z,14.45
2023-05-09T19:45:33.593Z,14.44
2023-05-09T19:48:00.772Z,14.31
2023-05-09T19:50:27.606Z,14.36
2023-05-09T19:52:54.181Z,14.41
2023-05-09T19:55:20.902Z,14.35
2023-05-09T19:57:47.497Z,14.32
2023-05-09T20:00:14.680Z,14.33
2023-05-09T20:02:41.658Z,14.38
2023-05-09T20:05:08.799Z,14.39
2023-05-09T20:07:35.426Z,14.40
2023-05-09T20:10:02.108Z,14.36
2023-05-09T20:12:30.227Z,14.31
2023-05-09T20:14:57.206Z,14.34
2023-05-09T20:17:24.021Z,14.32
2023-05-09T20:19:51.140Z,14.30
2023-05-09T20:22:17.825Z,14.30
2023-05-09T20:24:44.413Z,14.28
2023-05-09T20:27:11.014Z,14.32
2023-05-09T20:29:37.633Z,14.29
2023-05-09T20:32:04.709Z,14.23
2023-05-09T20:34:31.400Z,14.24
2023-05-09T20:36:58.000Z,14.21
2023-05-09T20:39:24.876Z,14.18
2023-05-09T20:41:52.228Z,14.21
2023-05-09T20:44:19.211Z,14.17
2023-05-09T20:46:46.113Z,14.12
2023-05-09T20:49:12.882Z,14.11
2023-05-09T20:51:39.718Z,14.07
2023-05-09T20:54:06.584Z,14.07
2023-05-09T20:56:35.461Z,14.06
2023-05-09T20:59:04.090Z,14.08
2023-05-09T21:01:36.825Z,14.08
2023-05-09T21:04:08.355Z,14.04
2023-05-09T21:06:36.299Z,13.98
2023-05-09T21:09:04.390Z,14.08
2023-05-09T21:11:31.127Z,14.05
2023-05-09T21:13:57.730Z,14.06
2023-05-09T21:16:24.412Z,14.06
2023-05-09T21:18:51.074Z,14.06
2023-05-09T21:21:17.955Z,14.06
2023-05-09T21:23:44.535Z,14.02
2023-05-09T21:26:11.243Z,14.02
2023-05-09T21:28:38.039Z,14.01
2023-05-09T21:31:04.927Z,13.87
2023-05-09T21:33:31.570Z,13.95
2023-05-09T21:35:59.274Z,13.97
2023-05-09T21:38:25.878Z,13.86
2023-05-09T21:40:52.540Z,13.86
2023-05-09T21:43:19.578Z,13.80
2023-05-09T21:45:46.371Z,13.74
2023-05-09T21:48:13.453Z,13.74
2023-05-09T21:50:40.240Z,13.77
2023-05-09T21:53:06.874Z,13.83
2023-05-09T21:55:33.411Z,13.83
2023-05-09T21:57:59.984Z,13.72
2023-05-09T22:00:26.635Z,13.85
2023-05-09T22:02:53.551Z,13.84
2023-05-09T22:05:20.234Z,13.85
2023-05-09T22:07:46.860Z,13.85
2023-05-09T22:10:13.787Z,13.85
2023-05-09T22:12:40.574Z,13.81
2023-05-09T22:15:08.836Z,13.79
2023-05-09T22:17:35.771Z,13.85
2023-05-09T22:20:02.518Z,13.87
2023-05-09T22:22:29.839Z,13.84
2023-05-09T22:24:56.961Z,13.78
2023-05-09T22:27:23.563Z,13.68
2023-05-09T22:29:50.423Z,13.71
2023-05-09T22:32:17.156Z,13.72
2023-05-09T22:34:47.527Z,13.54
2023-05-09T22:37:14.787Z,13.61
2023-05-09T22:39:41.449Z,13.54
2023-05-09T22:42:09.860Z,13.45
2023-05-09T22:44:36.465Z,13.45
2023-05-09T22:47:03.528Z,13.42
2023-05-09T22:49:30.142Z,13.45
2023-05-09T22:51:56.732Z,13.44
2023-05-09T22:54:23.381Z,13.42
2023-05-09T22:56:50.003Z,13.35
2023-05-09T22:59:16.645Z,13.35
2023-05-09T23:01:43.259Z,13.36
2023-05-09T23:04:09.892Z,13.41
2023-05-09T23:06:36.482Z,13.36
2023-05-09T23:09:03.089Z,13.33
2023-05-09T23:11:30.238Z,13.34
2023-05-09T23:13:57.011Z,13.34
2023-05-09T23:16:23.722Z,13.32
2023-05-09T23:18:50.399Z,13.31
2023-05-09T23:21:17.082Z,13.34
2023-05-09T23:23:43.671Z,13.37
2023-05-09T23:26:10.521Z,13.38
2023-05-09T23:28:37.103Z,13.45
2023-05-09T23:31:03.783Z,13.42
2023-05-09T23:33:30.406Z,13.40
2023-05-09T23:35:57.122Z,13.43
2023-05-09T23:38:23.826Z,13.44
2023-05-09T23:40:50.749Z,13.35
2023-05-09T23:43:18.188Z,13.49
2023-05-09T23:45:44.759Z,13.49
2023-05-09T23:48:11.446Z,13.48
2023-05-09T23:50:38.147Z,13.47
2023-05-09T23:53:05.062Z,13.47
2023-05-09T23:55:31.757Z,13.45
2023-05-09T23:57:58.358Z,13.49
